Seney, Michigan
Current Conditions -  °F | °C
As of 9:15 AM on Wednesday 28 Jan 2015 (Local Time) from KERY Reporting Station
Overcast Overcast  
Wind Chill:   Ceiling: 2000
Heat Index: 14°   Visibility: 10mi
Dew Point: 11°   Wind: 6mph
Humidity: 86%   Direction: 170°S
Pressure: 30.22"   Gusts: NA
Location:  46.35°N, 85.95°W
Report Text: KERY 281415Z AUTO 17005KT 10SM OVC020 M10/M12 A3022 RMK AO2 T10981118
Loading
Personal Weather Stations






























Interactive Weather Map New forecast layout! Learn more

10-Day Weather Forecast

Advertisements
Track Severe Weather on mobile